As Olivia — DYQC — position and weather

sailwx.info

Track history (hours):
 
Tides and Currents Weather Stations Pressure Air Temp Water Temp Dewpoint Dewpoint Depression Visibility Wind Speed Wind Dir Waves Ship Positions

As Olivia

Last reported at 2014-Oct-31 09:33 UTC. Time now 2014-Oct-31 18:00 UTC.
Position N 51°19' E 004°18'.

Length 146 m; draft 9.1 m.

Type: Ship (hazmat cat B). MMSI: 548767000.

Date/timePositionNaut miles runAvg speedWind from/ knotsBaromVisibWave heightAir tempDewpointWater temp
2014-Oct-31 09:33N 51°19' E 004°18'3 2.5
2014-Oct-31 08:32N 51°17' E 004°20'0 0.0
2014-Oct-31 07:28N 51°17' E 004°20'0 0.0
2014-Oct-31 06:33N 51°17' E 004°20'0 0.0
2014-Oct-31 05:32N 51°17' E 004°20'0 0.0
2014-Oct-29 08:33N 51°17' E 004°20'2 1.8
2014-Oct-29 07:33N 51°18' E 004°19'3 2.7
2014-Oct-29 06:33N 51°21' E 004°17'1 0.5
2014-Oct-29 05:33N 51°21' E 004°16'4 3.9
2014-Oct-29 04:33N 51°24' E 004°12'9 9.1
2014-Oct-29 03:33N 51°25' E 003°58'10 9.6
2014-Oct-29 02:33N 51°24' E 003°43'7 6.7
2014-Oct-29 01:34N 51°25' E 003°32'1211.8
2014-Oct-29 00:31N 51°24' E 003°12'1111.4
2014-Oct-28 23:31N 51°22' E 002°54'1010.5
2014-Oct-28 22:33N 51°22' E 002°38'7 7.0
2014-Oct-28 21:33N 51°21' E 002°27'1110.6
2014-Oct-28 20:32N 51°16' E 002°12'1312.8
2014-Oct-28 19:33N 51°10' E 001°54'1313.3
2014-Oct-28 18:34N 51°02' E 001°38'1413.9
2014-Oct-28 17:33N 50°50' E 001°25'11414.2
2014-Oct-28 09:32N 50°04' W 001°19'1616.4
2014-Oct-28 08:33N 50°00' W 001°43'1515.2
2014-Oct-28 07:33N 49°56' W 002°06'2813.1
2014-Oct-28 05:27N 49°49' W 002°47'1112.2
2014-Oct-28 04:33N 49°46' W 003°03'1412.1
2014-Oct-28 03:24N 49°39' W 003°22'1312.2
2014-Oct-28 02:22N 49°32' W 003°39'  
Track history (hours):
 
Tides and Currents Weather Stations Pressure Air Temp Water Temp Dewpoint Dewpoint Depression Visibility Wind Speed Wind Dir Waves Ship Positions

As Olivia

Last reported at 2014-Oct-31 09:33 UTC. Time now 2014-Oct-31 18:00 UTC.
Position N 51°19' E 004°18'.

Length 146 m; draft 9.1 m.

Type: Ship (hazmat cat B). MMSI: 548767000.

Date/timePositionNaut miles runAvg speedWind from/ knotsBaromVisibWave heightAir tempDewpointWater temp
2014-Oct-31 09:33N 51°19' E 004°18'3 2.5
2014-Oct-31 08:32N 51°17' E 004°20'0 0.0
2014-Oct-31 07:28N 51°17' E 004°20'0 0.0
2014-Oct-31 06:33N 51°17' E 004°20'0 0.0
2014-Oct-31 05:32N 51°17' E 004°20'0 0.0
2014-Oct-29 08:33N 51°17' E 004°20'2 1.8
2014-Oct-29 07:33N 51°18' E 004°19'3 2.7
2014-Oct-29 06:33N 51°21' E 004°17'1 0.5
2014-Oct-29 05:33N 51°21' E 004°16'4 3.9
2014-Oct-29 04:33N 51°24' E 004°12'9 9.1
2014-Oct-29 03:33N 51°25' E 003°58'10 9.6
2014-Oct-29 02:33N 51°24' E 003°43'7 6.7
2014-Oct-29 01:34N 51°25' E 003°32'1211.8
2014-Oct-29 00:31N 51°24' E 003°12'1111.4
2014-Oct-28 23:31N 51°22' E 002°54'1010.5
2014-Oct-28 22:33N 51°22' E 002°38'7 7.0
2014-Oct-28 21:33N 51°21' E 002°27'1110.6
2014-Oct-28 20:32N 51°16' E 002°12'1312.8
2014-Oct-28 19:33N 51°10' E 001°54'1313.3
2014-Oct-28 18:34N 51°02' E 001°38'1413.9
2014-Oct-28 17:33N 50°50' E 001°25'11414.2
2014-Oct-28 09:32N 50°04' W 001°19'1616.4
2014-Oct-28 08:33N 50°00' W 001°43'1515.2
2014-Oct-28 07:33N 49°56' W 002°06'2813.1
2014-Oct-28 05:27N 49°49' W 002°47'1112.2
2014-Oct-28 04:33N 49°46' W 003°03'1412.1
2014-Oct-28 03:24N 49°39' W 003°22'1312.2
2014-Oct-28 02:22N 49°32' W 003°39'  

Dump ship's entire track history